createdAt,value
2023-05-24T00:01:12.485Z,99072.60
2023-05-24T00:03:39.690Z,99071.85
2023-05-24T00:06:06.913Z,99073.73
2023-05-24T00:08:34.284Z,99074.02
2023-05-24T00:11:00.993Z,99072.75
2023-05-24T00:13:28.403Z,99072.88
2023-05-24T00:15:55.218Z,99074.14
2023-05-24T00:18:21.971Z,99069.72
2023-05-24T00:20:48.677Z,99076.73
2023-05-24T00:23:15.651Z,99079.10
2023-05-24T00:25:42.334Z,99076.86
2023-05-24T00:28:08.919Z,99078.54
2023-05-24T00:30:38.174Z,99075.05
2023-05-24T00:33:05.005Z,99077.39
2023-05-24T00:35:31.897Z,99078.59
2023-05-24T00:37:58.869Z,99080.40
2023-05-24T00:40:25.687Z,99077.88
2023-05-24T00:42:52.864Z,99076.66
2023-05-24T00:45:19.893Z,99078.39
2023-05-24T00:47:47.221Z,99085.54
2023-05-24T00:50:16.758Z,99083.56
2023-05-24T00:52:43.444Z,99083.19
2023-05-24T00:55:11.654Z,99078.13
2023-05-24T00:57:38.507Z,99082.21
2023-05-24T01:00:09.021Z,99082.98
2023-05-24T01:02:37.666Z,99081.69
2023-05-24T01:05:05.633Z,99079.10
2023-05-24T01:07:41.980Z,99077.36
2023-05-24T01:10:25.555Z,99076.32
2023-05-24T01:13:15.932Z,99075.48
2023-05-24T01:15:45.396Z,99076.94
2023-05-24T01:18:29.795Z,99075.17
2023-05-24T01:21:11.831Z,99080.45
2023-05-24T01:24:22.158Z,99082.58
2023-05-24T01:27:07.909Z,99085.01
2023-05-24T01:29:35.851Z,99089.20
2023-05-24T01:32:02.736Z,99090.52
2023-05-24T01:34:29.956Z,99093.89
2023-05-24T01:36:56.888Z,99095.77
2023-05-24T01:39:27.016Z,99099.24
2023-05-24T01:42:06.038Z,99097.09
2023-05-24T01:44:43.234Z,99096.92
2023-05-24T01:48:10.823Z,99096.02
2023-05-24T01:50:40.950Z,99092.27
2023-05-24T01:53:08.795Z,99092.26
2023-05-24T01:55:35.328Z,99091.88
2023-05-24T01:58:03.326Z,99091.38
2023-05-24T02:00:30.721Z,99094.20
2023-05-24T02:02:57.773Z,99094.91
2023-05-24T02:05:24.955Z,99093.48
2023-05-24T02:07:52.065Z,99093.45
2023-05-24T02:10:20.599Z,99095.97
2023-05-24T02:12:47.290Z,99100.80
2023-05-24T02:15:14.268Z,99100.77
2023-05-24T02:17:42.391Z,99100.27
2023-05-24T02:20:10.493Z,99101.44
2023-05-24T02:22:37.878Z,99101.65
2023-05-24T02:25:05.444Z,99105.02
2023-05-24T02:27:32.566Z,99101.19
2023-05-24T02:29:59.651Z,99101.46
2023-05-24T02:32:26.331Z,99105.05
2023-05-24T02:34:53.266Z,99107.63
2023-05-24T02:37:20.431Z,99108.83
2023-05-24T02:39:47.283Z,99108.65
2023-05-24T02:42:14.049Z,99109.63
2023-05-24T02:44:42.402Z,99111.16
2023-05-24T02:47:09.445Z,99110.58
2023-05-24T02:49:36.807Z,99110.17
2023-05-24T02:52:04.141Z,99111.27
2023-05-24T02:54:30.907Z,99112.91
2023-05-24T02:56:58.136Z,99113.42
2023-05-24T02:59:25.307Z,99114.42
2023-05-24T03:01:52.185Z,99112.85
2023-05-24T03:04:18.960Z,99108.77
2023-05-24T03:06:46.726Z,99109.68
2023-05-24T03:09:15.843Z,99109.33
2023-05-24T03:11:42.628Z,99109.96
2023-05-24T03:14:10.683Z,99113.97
2023-05-24T03:16:38.971Z,99117.22
2023-05-24T03:19:07.663Z,99117.64
2023-05-24T03:21:36.586Z,99121.89
2023-05-24T03:24:03.541Z,99119.07
2023-05-24T03:26:31.294Z,99122.43
2023-05-24T03:28:58.787Z,99125.15
2023-05-24T03:31:30.409Z,99128.04
2023-05-24T03:33:57.595Z,99128.82
2023-05-24T03:36:25.709Z,99125.40
2023-05-24T03:38:52.469Z,99128.36
2023-05-24T03:41:19.858Z,99130.81
2023-05-24T03:43:46.664Z,99129.79
2023-05-24T03:46:16.996Z,99131.10
2023-05-24T03:48:44.245Z,99134.02
2023-05-24T03:51:11.013Z,99134.52
2023-05-24T03:53:37.592Z,99134.63
2023-05-24T03:56:04.215Z,99137.48
2023-05-24T03:58:32.425Z,99136.84
2023-05-24T04:00:59.577Z,99136.70
2023-05-24T04:03:27.223Z,99137.20
2023-05-24T04:05:55.310Z,99136.73
2023-05-24T04:08:22.586Z,99136.61
2023-05-24T04:10:49.422Z,99138.71
2023-05-24T04:13:16.209Z,99135.04
2023-05-24T04:15:43.084Z,99134.77
2023-05-24T04:18:11.444Z,99133.38
2023-05-24T04:20:39.352Z,99129.23
2023-05-24T04:23:06.446Z,99132.18
2023-05-24T04:25:33.773Z,99137.10
2023-05-24T04:28:02.006Z,99137.20
2023-05-24T04:30:31.021Z,99134.47
2023-05-24T04:32:58.918Z,99133.98
2023-05-24T04:35:28.458Z,99138.29
2023-05-24T04:37:55.211Z,99139.89
2023-05-24T04:40:22.548Z,99139.34
2023-05-24T04:42:50.028Z,99138.05
2023-05-24T04:45:16.908Z,99137.95
2023-05-24T04:47:43.960Z,99142.58
2023-05-24T04:50:10.756Z,99137.45
2023-05-24T04:52:37.716Z,99140.35
2023-05-24T04:55:05.155Z,99138.30
2023-05-24T04:57:32.036Z,99141.14
2023-05-24T04:59:59.007Z,99140.05
2023-05-24T05:02:26.752Z,99143.52
2023-05-24T05:04:53.482Z,99147.68
2023-05-24T05:07:21.987Z,99152.54
2023-05-24T05:09:49.331Z,99149.76
2023-05-24T05:12:15.928Z,99152.94
2023-05-24T05:14:42.851Z,99156.52
2023-05-24T05:17:09.588Z,99155.45
2023-05-24T05:19:36.841Z,99156.71
2023-05-24T05:22:04.533Z,99161.23
2023-05-24T05:24:32.578Z,99157.53
2023-05-24T05:26:59.115Z,99157.88
2023-05-24T05:29:25.816Z,99160.41
2023-05-24T05:31:52.711Z,99161.65
2023-05-24T05:34:20.644Z,99166.69
2023-05-24T05:36:47.587Z,99166.04
2023-05-24T05:39:14.225Z,99163.75
2023-05-24T05:41:45.462Z,99165.20
2023-05-24T05:44:15.015Z,99169.96
2023-05-24T05:46:43.409Z,99169.88
2023-05-24T05:49:10.110Z,99174.24
2023-05-24T05:51:38.265Z,99167.25
2023-05-24T05:54:05.460Z,99172.10
2023-05-24T05:56:32.509Z,99173.44
2023-05-24T05:58:59.575Z,99171.75
2023-05-24T06:01:26.584Z,99176.05
2023-05-24T06:03:53.578Z,99175.66
2023-05-24T06:06:21.027Z,99178.52
2023-05-24T06:08:47.746Z,99180.92
2023-05-24T06:11:14.586Z,99183.61
2023-05-24T06:13:41.446Z,99183.64
2023-05-24T06:16:08.364Z,99183.48
2023-05-24T06:18:36.123Z,99177.98
2023-05-24T06:21:02.768Z,99173.50
2023-05-24T06:23:30.203Z,99171.16
2023-05-24T06:25:57.365Z,99175.67
2023-05-24T06:28:24.116Z,99174.17
2023-05-24T06:30:51.315Z,99179.21
2023-05-24T06:33:18.603Z,99182.25
2023-05-24T06:35:45.701Z,99178.95
2023-05-24T06:38:14.260Z,99181.11
2023-05-24T06:40:41.204Z,99178.39
2023-05-24T06:43:08.132Z,99179.01
2023-05-24T06:45:36.856Z,99179.16
2023-05-24T06:48:04.520Z,99178.95
2023-05-24T06:50:31.470Z,99175.98
2023-05-24T06:52:58.050Z,99177.58
2023-05-24T06:55:25.171Z,99178.74
2023-05-24T06:57:52.174Z,99180.24
2023-05-24T07:00:19.944Z,99178.79
2023-05-24T07:02:46.787Z,99177.59
2023-05-24T07:05:13.911Z,99178.49
2023-05-24T07:07:42.394Z,99180.66
2023-05-24T07:10:10.765Z,99180.88
2023-05-24T07:12:38.297Z,99182.31
2023-05-24T07:15:06.600Z,99184.14
2023-05-24T07:17:33.697Z,99184.20
2023-05-24T07:20:01.229Z,99185.13
2023-05-24T07:22:29.600Z,99184.52
2023-05-24T07:24:56.177Z,99188.36
2023-05-24T07:27:23.236Z,99187.23
2023-05-24T07:29:50.187Z,99179.16
2023-05-24T07:32:17.335Z,99184.15
2023-05-24T07:34:44.360Z,99184.73
2023-05-24T07:37:11.296Z,99186.37
2023-05-24T07:39:38.621Z,99180.77
2023-05-24T07:42:06.036Z,99181.23
2023-05-24T07:44:32.971Z,99182.26
2023-05-24T07:47:01.940Z,99186.52
2023-05-24T07:49:29.059Z,99187.39
2023-05-24T07:51:59.692Z,99190.02
2023-05-24T07:54:26.551Z,99190.09
2023-05-24T07:56:53.272Z,99194.80
2023-05-24T07:59:20.429Z,99191.67
2023-05-24T08:01:47.181Z,99196.96
2023-05-24T08:04:13.850Z,99195.66
2023-05-24T08:06:41.186Z,99195.16
2023-05-24T08:09:08.354Z,99193.35
2023-05-24T08:11:35.460Z,99197.31
2023-05-24T08:14:03.122Z,99202.87
2023-05-24T08:16:31.145Z,99200.84
2023-05-24T08:18:58.181Z,99197.61
2023-05-24T08:21:25.706Z,99198.30
2023-05-24T08:23:52.611Z,99196.71
2023-05-24T08:26:20.567Z,99196.85
2023-05-24T08:28:47.672Z,99192.80
2023-05-24T08:31:14.309Z,99197.98
2023-05-24T08:33:42.402Z,99192.46
2023-05-24T08:36:10.259Z,99187.48
2023-05-24T08:38:36.989Z,99188.61
2023-05-24T08:41:08.000Z,99185.86
2023-05-24T08:43:35.215Z,99185.02
2023-05-24T08:46:03.193Z,99179.50
2023-05-24T08:48:30.746Z,99183.77
2023-05-24T08:50:57.854Z,99181.87
2023-05-24T08:53:24.613Z,99178.17
2023-05-24T08:55:55.350Z,99176.61
2023-05-24T08:58:22.360Z,99181.19
2023-05-24T09:00:49.288Z,99178.75
2023-05-24T09:03:16.477Z,99183.96
2023-05-24T09:05:44.087Z,99179.59
2023-05-24T09:08:10.970Z,99174.30
2023-05-24T09:10:53.201Z,99170.83
2023-05-24T09:13:22.961Z,99168.21
2023-05-24T09:15:49.823Z,99171.34
2023-05-24T09:18:17.668Z,99176.00
2023-05-24T09:20:44.711Z,99175.06
2023-05-24T09:23:12.340Z,99175.26
2023-05-24T09:25:43.723Z,99173.28
2023-05-24T09:28:12.856Z,99176.08
2023-05-24T09:30:43.350Z,99175.75
2023-05-24T09:33:11.850Z,99177.16
2023-05-24T09:35:43.429Z,99181.27
2023-05-24T09:38:19.985Z,99185.04
2023-05-24T09:40:46.646Z,99186.91
2023-05-24T09:43:14.295Z,99187.66
2023-05-24T09:45:48.720Z,99190.00
2023-05-24T09:48:16.746Z,99188.16
2023-05-24T09:50:47.559Z,99195.48
2023-05-24T09:53:18.835Z,99192.96
2023-05-24T09:55:45.810Z,99195.23
2023-05-24T09:58:13.446Z,99198.52
2023-05-24T10:00:41.175Z,99198.27
2023-05-24T10:03:13.569Z,99196.69
2023-05-24T10:05:44.867Z,99196.33
2023-05-24T10:08:11.944Z,99195.50
2023-05-24T10:10:39.256Z,99191.09
2023-05-24T10:13:07.138Z,99189.67
2023-05-24T10:15:33.932Z,99197.48
2023-05-24T10:18:02.117Z,99199.48
2023-05-24T10:20:29.477Z,99205.48
2023-05-24T10:23:02.587Z,99206.55
2023-05-24T10:25:29.412Z,99209.00
2023-05-24T10:28:07.345Z,99207.34
2023-05-24T10:30:40.443Z,99209.30
2023-05-24T10:33:07.880Z,99209.61
2023-05-24T10:35:37.672Z,99207.64
2023-05-24T10:38:06.854Z,99204.05
2023-05-24T10:40:33.763Z,99205.98
2023-05-24T10:43:03.967Z,99204.27
2023-05-24T10:45:35.212Z,99205.62
2023-05-24T10:48:28.463Z,99204.65
2023-05-24T10:50:55.722Z,99205.29
2023-05-24T10:53:23.164Z,99208.95
2023-05-24T10:55:59.808Z,99212.52
2023-05-24T10:58:58.041Z,99213.27
2023-05-24T11:01:31.887Z,99215.70
2023-05-24T11:04:15.107Z,99217.48
2023-05-24T11:06:55.201Z,99219.52
2023-05-24T11:09:24.048Z,99219.30
2023-05-24T11:11:54.570Z,99223.63
2023-05-24T11:14:28.133Z,99217.89
2023-05-24T11:16:55.550Z,99211.52
2023-05-24T11:19:33.731Z,99209.73
2023-05-24T11:22:06.581Z,99212.82
2023-05-24T11:24:33.663Z,99214.25
2023-05-24T11:27:04.154Z,99213.09
2023-05-24T11:29:33.927Z,99213.48
2023-05-24T11:32:04.248Z,99209.07
2023-05-24T11:34:31.665Z,99214.52
2023-05-24T11:36:59.657Z,99214.02
2023-05-24T11:39:30.905Z,99211.58
2023-05-24T11:41:58.566Z,99211.76
2023-05-24T11:44:27.407Z,99207.73
2023-05-24T11:47:00.811Z,99204.06
2023-05-24T11:49:27.678Z,99201.84
2023-05-24T11:51:56.189Z,99196.76
2023-05-24T11:54:23.807Z,99192.89
2023-05-24T11:56:52.171Z,99197.06
2023-05-24T11:59:23.714Z,99195.77
2023-05-24T12:01:57.011Z,99191.50
2023-05-24T12:04:23.933Z,99188.72
2023-05-24T12:06:50.591Z,99184.75
2023-05-24T12:09:18.307Z,99184.87
2023-05-24T12:11:49.570Z,99179.11
2023-05-24T12:14:22.320Z,99174.91
2023-05-24T12:16:49.078Z,99172.86
2023-05-24T12:19:31.389Z,99166.31
2023-05-24T12:22:00.307Z,99159.70
2023-05-24T12:24:27.178Z,99161.05
2023-05-24T12:26:58.058Z,99158.56
2023-05-24T12:29:25.338Z,99161.33
2023-05-24T12:31:52.119Z,99162.30
2023-05-24T12:34:19.306Z,99158.30
2023-05-24T12:36:47.428Z,99158.36
2023-05-24T12:39:18.890Z,99164.58
2023-05-24T12:41:50.293Z,99163.33
2023-05-24T12:44:17.491Z,99153.35
2023-05-24T12:46:44.114Z,99155.52
2023-05-24T12:49:10.883Z,99158.08
2023-05-24T12:51:37.660Z,99158.13
2023-05-24T12:54:04.767Z,99161.05
2023-05-24T12:56:34.666Z,99159.39
2023-05-24T12:59:01.420Z,99158.83
2023-05-24T13:01:29.945Z,99157.76
2023-05-24T13:03:56.804Z,99162.10
2023-05-24T13:06:24.366Z,99167.96
2023-05-24T13:08:51.837Z,99170.06
2023-05-24T13:11:18.740Z,99161.32
2023-05-24T13:13:45.732Z,99158.93
2023-05-24T13:16:12.452Z,99156.63
2023-05-24T13:18:39.529Z,99150.55
2023-05-24T13:21:06.605Z,99147.66
2023-05-24T13:23:35.583Z,99142.38
2023-05-24T13:26:02.372Z,99140.44
2023-05-24T13:28:30.075Z,99142.82
2023-05-24T13:30:56.890Z,99141.83
2023-05-24T13:33:23.674Z,99140.26
2023-05-24T13:35:50.532Z,99143.73
2023-05-24T13:38:17.858Z,99142.41
2023-05-24T13:40:45.348Z,99138.65
2023-05-24T13:43:12.565Z,99143.45
2023-05-24T13:45:39.337Z,99144.05
2023-05-24T13:48:06.188Z,99148.63
2023-05-24T13:50:34.107Z,99149.83
2023-05-24T13:53:02.179Z,99149.13
2023-05-24T13:55:29.964Z,99151.75
2023-05-24T13:57:56.867Z,99150.75
2023-05-24T14:00:24.134Z,99151.81
2023-05-24T14:02:51.203Z,99151.50
2023-05-24T14:05:27.501Z,99152.67
2023-05-24T14:07:58.231Z,99154.39
2023-05-24T14:10:27.033Z,99151.38
2023-05-24T14:13:22.750Z,99150.76
2023-05-24T14:15:49.225Z,99146.17
2023-05-24T14:18:16.262Z,99150.38
2023-05-24T14:20:43.594Z,99147.96
2023-05-24T14:23:10.794Z,99142.86
2023-05-24T14:25:38.129Z,99140.34
2023-05-24T14:28:05.889Z,99137.36
2023-05-24T14:30:33.110Z,99135.14
2023-05-24T14:33:02.722Z,99134.38
2023-05-24T14:35:29.656Z,99133.09
2023-05-24T14:37:56.439Z,99134.29
2023-05-24T14:40:23.372Z,99135.92
2023-05-24T14:42:50.040Z,99135.49
2023-05-24T14:45:16.757Z,99134.41
2023-05-24T14:47:43.641Z,99136.52
2023-05-24T14:50:11.589Z,99139.29
2023-05-24T14:52:39.046Z,99136.67
2023-05-24T14:55:06.890Z,99134.77
2023-05-24T14:57:33.736Z,99136.09
2023-05-24T15:00:00.901Z,99136.48
2023-05-24T15:02:27.732Z,99138.95
2023-05-24T15:04:54.792Z,99136.77
2023-05-24T15:07:22.358Z,99139.52
2023-05-24T15:09:49.246Z,99140.85
2023-05-24T15:12:15.991Z,99142.57
2023-05-24T15:14:42.803Z,99136.17
2023-05-24T15:17:10.687Z,99136.20
2023-05-24T15:19:37.738Z,99138.05
2023-05-24T15:22:04.644Z,99137.70
2023-05-24T15:24:31.568Z,99134.52
2023-05-24T15:26:58.421Z,99131.70
2023-05-24T15:29:25.241Z,99132.09
2023-05-24T15:31:52.235Z,99133.59
2023-05-24T15:34:19.676Z,99134.09
2023-05-24T15:36:47.717Z,99137.06
2023-05-24T15:39:14.328Z,99143.03
2023-05-24T15:41:41.320Z,99145.06
2023-05-24T15:44:08.292Z,99145.19
2023-05-24T15:46:36.297Z,99147.52
2023-05-24T15:49:03.209Z,99146.17
2023-05-24T15:53:59.914Z,99157.80
2023-05-24T15:56:27.186Z,99168.55
2023-05-24T15:58:54.011Z,99175.36
2023-05-24T16:01:21.344Z,99179.27
2023-05-24T16:03:50.338Z,99180.44
2023-05-24T16:06:17.175Z,99180.99
2023-05-24T16:08:44.366Z,99182.41
2023-05-24T16:11:11.110Z,99187.23
2023-05-24T16:13:38.770Z,99188.52
2023-05-24T16:16:05.928Z,99193.15
2023-05-24T16:18:34.882Z,99192.13
2023-05-24T16:21:02.086Z,99192.41
2023-05-24T16:23:29.127Z,99194.71
2023-05-24T16:25:55.718Z,99191.78
2023-05-24T16:28:24.424Z,99188.70
2023-05-24T16:30:54.967Z,99193.18
2023-05-24T16:33:23.109Z,99192.21
2023-05-24T16:35:55.119Z,99193.45
2023-05-24T16:38:24.180Z,99192.12
2023-05-24T16:40:51.631Z,99193.38
2023-05-24T16:43:18.370Z,99192.99
2023-05-24T16:45:45.207Z,99197.84
2023-05-24T16:48:12.835Z,99205.08
2023-05-24T16:50:40.542Z,99208.27
2023-05-24T16:53:07.475Z,99216.93
2023-05-24T16:55:34.639Z,99215.87
2023-05-24T16:58:01.775Z,99212.11
2023-05-24T17:00:28.926Z,99214.87
2023-05-24T17:02:58.710Z,99217.55
2023-05-24T17:05:25.594Z,99221.98
2023-05-24T17:07:52.290Z,99216.52
2023-05-24T17:10:19.017Z,99220.34
2023-05-24T17:12:47.020Z,99222.38
2023-05-24T17:15:14.003Z,99224.79
2023-05-24T17:17:40.936Z,99224.39
2023-05-24T17:20:09.663Z,99225.84
2023-05-24T17:22:36.861Z,99226.59
2023-05-24T17:25:04.180Z,99229.23
2023-05-24T17:27:31.274Z,99231.34
2023-05-24T17:29:58.404Z,99239.59
2023-05-24T17:32:25.301Z,99242.59
2023-05-24T17:34:54.850Z,99248.65
2023-05-24T17:37:21.504Z,99247.46
2023-05-24T17:39:51.658Z,99250.06
2023-05-24T17:42:18.656Z,99253.20
2023-05-24T17:44:45.259Z,99256.55
2023-05-24T17:47:12.041Z,99266.21
2023-05-24T17:49:39.094Z,99269.57
2023-05-24T17:52:06.250Z,99267.20
2023-05-24T17:54:33.829Z,99266.25
2023-05-24T17:57:02.468Z,99267.63
2023-05-24T17:59:29.305Z,99270.27
2023-05-24T18:01:56.287Z,99274.89
2023-05-24T18:04:25.362Z,99276.08
2023-05-24T18:06:52.189Z,99279.05
2023-05-24T18:09:19.645Z,99285.52
2023-05-24T18:11:46.406Z,99291.83
2023-05-24T18:14:13.301Z,99292.61
2023-05-24T18:16:42.293Z,99290.27
2023-05-24T18:19:09.019Z,99295.66
2023-05-24T18:21:36.334Z,99296.23
2023-05-24T18:24:03.004Z,99298.48
2023-05-24T18:26:29.641Z,99300.27
2023-05-24T18:28:56.389Z,99301.38
2023-05-24T18:31:23.273Z,99304.86
2023-05-24T18:33:50.482Z,99304.42
2023-05-24T18:36:17.278Z,99312.52
2023-05-24T18:38:46.651Z,99307.15
2023-05-24T18:41:13.431Z,99307.94
2023-05-24T18:43:42.257Z,99309.55
2023-05-24T18:46:12.830Z,99309.37
2023-05-24T18:48:41.059Z,99308.34
2023-05-24T18:51:07.600Z,99304.48
2023-05-24T18:53:35.586Z,99306.27
2023-05-24T18:56:02.378Z,99306.96
2023-05-24T18:58:30.322Z,99305.11
2023-05-24T19:00:57.035Z,99303.91
2023-05-24T19:03:24.609Z,99305.25
2023-05-24T19:05:51.498Z,99309.45
2023-05-24T19:08:18.479Z,99316.45
2023-05-24T19:10:45.672Z,99319.63
2023-05-24T19:13:12.617Z,99315.63
2023-05-24T19:15:39.441Z,99316.88
2023-05-24T19:18:06.277Z,99318.27
2023-05-24T19:20:33.115Z,99319.75
2023-05-24T19:22:59.970Z,99323.21
2023-05-24T19:25:27.732Z,99318.94
2023-05-24T19:27:59.959Z,99321.98
2023-05-24T19:30:27.479Z,99322.19
2023-05-24T19:32:54.463Z,99328.15
2023-05-24T19:35:21.184Z,99331.48
2023-05-24T19:37:48.289Z,99330.63
2023-05-24T19:40:15.077Z,99334.70
2023-05-24T19:42:42.444Z,99329.67
2023-05-24T19:45:09.922Z,99326.80
2023-05-24T19:47:36.733Z,99323.17
2023-05-24T19:50:04.140Z,99326.30
2023-05-24T19:52:31.164Z,99331.04
2023-05-24T19:54:57.687Z,99332.91
2023-05-24T19:57:24.246Z,99329.41
2023-05-24T19:59:50.894Z,99327.37
2023-05-24T20:02:17.602Z,99323.95
2023-05-24T20:04:46.187Z,99327.20
2023-05-24T20:07:14.209Z,99333.09
2023-05-24T20:09:41.436Z,99328.93
2023-05-24T20:12:08.382Z,99334.11
2023-05-24T20:14:35.536Z,99333.62
2023-05-24T20:17:03.708Z,99334.89
2023-05-24T20:19:30.853Z,99335.57
2023-05-24T20:21:58.622Z,99332.73
2023-05-24T20:24:25.371Z,99331.23
2023-05-24T20:26:52.097Z,99330.11
2023-05-24T20:29:19.271Z,99329.11
2023-05-24T20:31:46.717Z,99332.52
2023-05-24T20:34:13.571Z,99327.36
2023-05-24T20:36:42.058Z,99324.65
2023-05-24T20:39:11.028Z,99324.23
2023-05-24T20:41:39.938Z,99327.77
2023-05-24T20:44:06.687Z,99324.77
2023-05-24T20:46:34.830Z,99323.29
2023-05-24T20:49:01.742Z,99320.23
2023-05-24T20:51:28.442Z,99319.58
2023-05-24T20:53:55.441Z,99321.54
2023-05-24T20:56:22.640Z,99321.45
2023-05-24T20:58:52.312Z,99319.46
2023-05-24T21:01:19.777Z,99316.46
2023-05-24T21:03:46.896Z,99313.58
2023-05-24T21:06:14.005Z,99309.83
2023-05-24T21:08:42.260Z,99310.81
2023-05-24T21:11:09.064Z,99310.11
2023-05-24T21:13:36.065Z,99309.39
2023-05-24T21:16:03.288Z,99307.08
2023-05-24T21:18:31.179Z,99309.17
2023-05-24T21:20:59.927Z,99309.77
2023-05-24T21:23:26.575Z,99306.96
2023-05-24T21:25:53.315Z,99305.13
2023-05-24T21:28:20.260Z,99305.53
2023-05-24T21:30:47.303Z,99297.84
2023-05-24T21:33:13.986Z,99296.59
2023-05-24T21:35:40.907Z,99293.08
2023-05-24T21:38:07.736Z,99296.64
2023-05-24T21:40:35.305Z,99297.36
2023-05-24T21:43:04.070Z,99297.23
2023-05-24T21:45:31.013Z,99294.14
2023-05-24T21:47:58.120Z,99289.94
2023-05-24T21:50:25.215Z,99291.08
2023-05-24T21:52:52.162Z,99295.30
2023-05-24T21:55:20.249Z,99295.73
2023-05-24T21:57:47.185Z,99298.73
2023-05-24T22:00:14.419Z,99299.36
2023-05-24T22:02:41.940Z,99301.46
2023-05-24T22:05:09.133Z,99302.13
2023-05-24T22:07:37.142Z,99306.98
2023-05-24T22:10:04.945Z,99304.58
2023-05-24T22:12:32.011Z,99308.52
2023-05-24T22:15:02.046Z,99311.58
2023-05-24T22:17:32.166Z,99308.99
2023-05-24T22:20:04.324Z,99314.26
2023-05-24T22:22:31.769Z,99311.54
2023-05-24T22:25:03.324Z,99316.39
2023-05-24T22:27:30.599Z,99318.69
2023-05-24T22:29:57.432Z,99319.66
2023-05-24T22:32:24.333Z,99321.94
2023-05-24T22:34:51.100Z,99320.20
2023-05-24T22:37:17.844Z,99321.86
2023-05-24T22:39:44.902Z,99318.98
2023-05-24T22:42:11.742Z,99318.86
2023-05-24T22:44:40.755Z,99317.70
2023-05-24T22:47:07.903Z,99312.67
2023-05-24T22:49:35.353Z,99310.06
2023-05-24T22:52:02.076Z,99311.47
2023-05-24T22:54:29.157Z,99313.77
2023-05-24T22:56:56.137Z,99315.95
2023-05-24T22:59:22.702Z,99314.86
2023-05-24T23:01:49.733Z,99316.23
2023-05-24T23:04:21.066Z,99317.93
2023-05-24T23:06:53.643Z,99319.89
2023-05-24T23:09:34.286Z,99322.63
2023-05-24T23:12:08.206Z,99324.33
2023-05-24T23:14:40.936Z,99327.47
2023-05-24T23:17:09.785Z,99328.35
2023-05-24T23:19:42.968Z,99325.55
2023-05-24T23:22:13.582Z,99324.54
2023-05-24T23:24:41.928Z,99326.72
2023-05-24T23:27:08.756Z,99322.69
2023-05-24T23:29:35.942Z,99321.63
2023-05-24T23:32:03.255Z,99323.95
2023-05-24T23:34:33.310Z,99327.17
2023-05-24T23:37:03.923Z,99327.20
2023-05-24T23:39:31.193Z,99327.95
2023-05-24T23:41:57.887Z,99333.86
2023-05-24T23:44:25.465Z,99333.09
2023-05-24T23:46:52.555Z,99330.73
2023-05-24T23:49:21.736Z,99328.88
2023-05-24T23:51:48.419Z,99328.91
2023-05-24T23:54:17.750Z,99329.67
2023-05-24T23:56:46.844Z,99327.83
2023-05-24T23:59:15.503Z,99322.94
